sensor_id;sensor_type;location;lat;lon;timestamp;P1;durP1;ratioP1;P2;durP2;ratioP2
29238;SDS011;16267;48.194;11.546;2023-08-17T00:02:26;3.60;;;2.53;;
29238;SDS011;16267;48.194;11.546;2023-08-17T00:04:52;3.50;;;2.15;;
29238;SDS011;16267;48.194;11.546;2023-08-17T00:07:17;3.08;;;2.33;;
29238;SDS011;16267;48.194;11.546;2023-08-17T00:09:43;2.92;;;2.38;;
29238;SDS011;16267;48.194;11.546;2023-08-17T00:12:09;4.47;;;3.03;;
29238;SDS011;16267;48.194;11.546;2023-08-17T00:14:34;3.20;;;2.42;;
29238;SDS011;16267;48.194;11.546;2023-08-17T00:17:00;3.30;;;2.38;;
29238;SDS011;16267;48.194;11.546;2023-08-17T00:19:27;3.15;;;2.38;;
29238;SDS011;16267;48.194;11.546;2023-08-17T00:21:54;2.50;;;2.13;;
29238;SDS011;16267;48.194;11.546;2023-08-17T00:24:20;3.75;;;2.42;;
29238;SDS011;16267;48.194;11.546;2023-08-17T00:26:46;3.25;;;2.13;;
29238;SDS011;16267;48.194;11.546;2023-08-17T00:29:11;3.00;;;2.22;;
29238;SDS011;16267;48.194;11.546;2023-08-17T00:31:39;3.60;;;2.40;;
29238;SDS011;16267;48.194;11.546;2023-08-17T00:34:06;3.78;;;2.28;;
29238;SDS011;16267;48.194;11.546;2023-08-17T00:36:31;4.32;;;2.28;;
29238;SDS011;16267;48.194;11.546;2023-08-17T00:38:57;5.45;;;2.25;;
29238;SDS011;16267;48.194;11.546;2023-08-17T00:41:23;4.65;;;2.70;;
29238;SDS011;16267;48.194;11.546;2023-08-17T00:43:49;3.92;;;2.63;;
29238;SDS011;16267;48.194;11.546;2023-08-17T00:46:14;3.90;;;2.45;;
29238;SDS011;16267;48.194;11.546;2023-08-17T00:48:41;3.45;;;2.55;;
29238;SDS011;16267;48.194;11.546;2023-08-17T00:51:07;3.38;;;2.28;;
29238;SDS011;16267;48.194;11.546;2023-08-17T00:53:34;2.20;;;1.92;;
29238;SDS011;16267;48.194;11.546;2023-08-17T00:56:00;4.15;;;2.30;;
29238;SDS011;16267;48.194;11.546;2023-08-17T00:58:27;4.80;;;2.55;;
29238;SDS011;16267;48.194;11.546;2023-08-17T01:00:54;3.42;;;2.33;;
29238;SDS011;16267;48.194;11.546;2023-08-17T01:03:20;3.08;;;2.20;;
29238;SDS011;16267;48.194;11.546;2023-08-17T01:05:48;3.83;;;2.80;;
29238;SDS011;16267;48.194;11.546;2023-08-17T01:08:14;3.65;;;2.58;;
29238;SDS011;16267;48.194;11.546;2023-08-17T01:13:46;3.47;;;2.47;;
29238;SDS011;16267;48.194;11.546;2023-08-17T01:16:15;3.90;;;2.55;;
29238;SDS011;16267;48.194;11.546;2023-08-17T01:18:51;3.13;;;2.35;;
29238;SDS011;16267;48.194;11.546;2023-08-17T01:21:18;3.45;;;2.45;;
29238;SDS011;16267;48.194;11.546;2023-08-17T01:23:49;3.33;;;2.38;;
29238;SDS011;16267;48.194;11.546;2023-08-17T01:26:16;3.10;;;2.25;;
29238;SDS011;16267;48.194;11.546;2023-08-17T01:28:45;3.70;;;2.55;;
29238;SDS011;16267;48.194;11.546;2023-08-17T01:31:14;3.97;;;2.97;;
29238;SDS011;16267;48.194;11.546;2023-08-17T01:33:50;2.88;;;2.10;;
29238;SDS011;16267;48.194;11.546;2023-08-17T01:38:53;3.85;;;2.70;;
29238;SDS011;16267;48.194;11.546;2023-08-17T01:41:22;3.80;;;2.75;;
29238;SDS011;16267;48.194;11.546;2023-08-17T01:43:49;3.45;;;2.60;;
29238;SDS011;16267;48.194;11.546;2023-08-17T01:46:16;4.53;;;2.35;;
29238;SDS011;16267;48.194;11.546;2023-08-17T01:48:43;5.13;;;2.63;;
29238;SDS011;16267;48.194;11.546;2023-08-17T01:51:10;4.28;;;2.58;;
29238;SDS011;16267;48.194;11.546;2023-08-17T01:53:41;3.30;;;2.30;;
29238;SDS011;16267;48.194;11.546;2023-08-17T01:56:07;3.95;;;2.88;;
29238;SDS011;16267;48.194;11.546;2023-08-17T01:58:32;4.25;;;2.38;;
29238;SDS011;16267;48.194;11.546;2023-08-17T02:00:58;3.40;;;2.42;;
29238;SDS011;16267;48.194;11.546;2023-08-17T02:03:24;3.30;;;2.47;;
29238;SDS011;16267;48.194;11.546;2023-08-17T02:05:49;2.70;;;2.22;;
29238;SDS011;16267;48.194;11.546;2023-08-17T02:08:15;3.80;;;2.50;;
29238;SDS011;16267;48.194;11.546;2023-08-17T02:10:41;4.53;;;2.78;;
29238;SDS011;16267;48.194;11.546;2023-08-17T02:13:06;5.50;;;2.55;;
29238;SDS011;16267;48.194;11.546;2023-08-17T02:15:32;3.30;;;2.53;;
29238;SDS011;16267;48.194;11.546;2023-08-17T02:18:04;3.07;;;2.50;;
29238;SDS011;16267;48.194;11.546;2023-08-17T02:20:30;2.83;;;2.50;;
29238;SDS011;16267;48.194;11.546;2023-08-17T02:22:56;5.75;;;3.20;;
29238;SDS011;16267;48.194;11.546;2023-08-17T02:25:21;2.70;;;1.88;;
29238;SDS011;16267;48.194;11.546;2023-08-17T02:27:47;2.63;;;2.05;;
29238;SDS011;16267;48.194;11.546;2023-08-17T02:30:13;3.67;;;2.45;;
29238;SDS011;16267;48.194;11.546;2023-08-17T02:32:39;4.50;;;2.40;;
29238;SDS011;16267;48.194;11.546;2023-08-17T02:35:05;2.75;;;2.20;;
29238;SDS011;16267;48.194;11.546;2023-08-17T02:37:32;3.63;;;2.53;;
29238;SDS011;16267;48.194;11.546;2023-08-17T02:39:57;3.65;;;2.72;;
29238;SDS011;16267;48.194;11.546;2023-08-17T02:42:24;3.47;;;2.58;;
29238;SDS011;16267;48.194;11.546;2023-08-17T02:44:49;4.32;;;2.55;;
29238;SDS011;16267;48.194;11.546;2023-08-17T02:47:15;2.80;;;2.28;;
29238;SDS011;16267;48.194;11.546;2023-08-17T02:49:41;3.55;;;2.72;;
29238;SDS011;16267;48.194;11.546;2023-08-17T02:52:06;3.28;;;2.47;;
29238;SDS011;16267;48.194;11.546;2023-08-17T02:54:32;5.68;;;2.92;;
29238;SDS011;16267;48.194;11.546;2023-08-17T02:56:58;3.95;;;2.80;;
29238;SDS011;16267;48.194;11.546;2023-08-17T02:59:24;3.67;;;2.45;;
29238;SDS011;16267;48.194;11.546;2023-08-17T03:01:50;4.00;;;2.53;;
29238;SDS011;16267;48.194;11.546;2023-08-17T03:04:16;2.70;;;2.22;;
29238;SDS011;16267;48.194;11.546;2023-08-17T03:06:42;3.22;;;2.50;;
29238;SDS011;16267;48.194;11.546;2023-08-17T03:09:07;3.58;;;2.75;;
29238;SDS011;16267;48.194;11.546;2023-08-17T03:11:33;4.50;;;2.60;;
29238;SDS011;16267;48.194;11.546;2023-08-17T03:13:59;4.20;;;2.88;;
29238;SDS011;16267;48.194;11.546;2023-08-17T03:16:28;3.70;;;2.60;;
29238;SDS011;16267;48.194;11.546;2023-08-17T03:18:55;3.75;;;2.47;;
29238;SDS011;16267;48.194;11.546;2023-08-17T03:21:21;3.95;;;2.47;;
29238;SDS011;16267;48.194;11.546;2023-08-17T03:23:47;4.13;;;2.58;;
29238;SDS011;16267;48.194;11.546;2023-08-17T03:26:14;5.45;;;2.53;;
29238;SDS011;16267;48.194;11.546;2023-08-17T03:28:40;4.32;;;2.58;;
29238;SDS011;16267;48.194;11.546;2023-08-17T03:31:06;4.68;;;2.85;;
29238;SDS011;16267;48.194;11.546;2023-08-17T03:33:33;3.38;;;2.33;;
29238;SDS011;16267;48.194;11.546;2023-08-17T03:36:00;3.33;;;2.65;;
29238;SDS011;16267;48.194;11.546;2023-08-17T03:38:27;4.75;;;2.90;;
29238;SDS011;16267;48.194;11.546;2023-08-17T03:40:53;3.17;;;2.50;;
29238;SDS011;16267;48.194;11.546;2023-08-17T03:43:19;3.88;;;2.72;;
29238;SDS011;16267;48.194;11.546;2023-08-17T03:45:44;4.47;;;2.33;;
29238;SDS011;16267;48.194;11.546;2023-08-17T03:48:10;2.55;;;2.22;;
29238;SDS011;16267;48.194;11.546;2023-08-17T03:50:36;5.78;;;3.03;;
29238;SDS011;16267;48.194;11.546;2023-08-17T03:53:02;3.17;;;2.45;;
29238;SDS011;16267;48.194;11.546;2023-08-17T03:55:28;3.90;;;2.90;;
29238;SDS011;16267;48.194;11.546;2023-08-17T03:57:54;3.58;;;2.78;;
29238;SDS011;16267;48.194;11.546;2023-08-17T04:00:20;4.03;;;2.50;;
29238;SDS011;16267;48.194;11.546;2023-08-17T04:02:45;3.58;;;2.47;;
29238;SDS011;16267;48.194;11.546;2023-08-17T04:05:11;5.18;;;2.50;;
29238;SDS011;16267;48.194;11.546;2023-08-17T04:07:38;3.95;;;2.47;;
29238;SDS011;16267;48.194;11.546;2023-08-17T04:10:06;5.63;;;2.67;;
29238;SDS011;16267;48.194;11.546;2023-08-17T04:12:33;4.57;;;2.65;;
29238;SDS011;16267;48.194;11.546;2023-08-17T04:14:59;2.63;;;2.22;;
29238;SDS011;16267;48.194;11.546;2023-08-17T04:17:25;4.65;;;2.60;;
29238;SDS011;16267;48.194;11.546;2023-08-17T04:19:51;4.03;;;2.35;;
29238;SDS011;16267;48.194;11.546;2023-08-17T04:22:17;5.00;;;2.47;;
29238;SDS011;16267;48.194;11.546;2023-08-17T04:24:43;3.25;;;2.13;;
29238;SDS011;16267;48.194;11.546;2023-08-17T04:27:08;3.33;;;2.55;;
29238;SDS011;16267;48.194;11.546;2023-08-17T04:29:34;3.55;;;2.70;;
29238;SDS011;16267;48.194;11.546;2023-08-17T04:32:01;3.67;;;2.60;;
29238;SDS011;16267;48.194;11.546;2023-08-17T04:34:26;3.38;;;2.45;;
29238;SDS011;16267;48.194;11.546;2023-08-17T04:36:52;2.70;;;2.30;;
29238;SDS011;16267;48.194;11.546;2023-08-17T04:39:18;3.03;;;2.67;;
29238;SDS011;16267;48.194;11.546;2023-08-17T04:41:43;3.42;;;2.33;;
29238;SDS011;16267;48.194;11.546;2023-08-17T04:44:09;3.90;;;2.35;;
29238;SDS011;16267;48.194;11.546;2023-08-17T04:46:35;4.47;;;2.95;;
29238;SDS011;16267;48.194;11.546;2023-08-17T04:49:01;5.68;;;3.42;;
29238;SDS011;16267;48.194;11.546;2023-08-17T04:51:27;3.50;;;2.58;;
29238;SDS011;16267;48.194;11.546;2023-08-17T04:53:53;3.58;;;2.47;;
29238;SDS011;16267;48.194;11.546;2023-08-17T04:56:18;3.30;;;2.55;;
29238;SDS011;16267;48.194;11.546;2023-08-17T04:58:44;3.38;;;2.88;;
29238;SDS011;16267;48.194;11.546;2023-08-17T05:01:10;5.72;;;3.28;;
29238;SDS011;16267;48.194;11.546;2023-08-17T05:03:36;4.63;;;2.75;;
29238;SDS011;16267;48.194;11.546;2023-08-17T05:06:02;4.05;;;2.78;;
29238;SDS011;16267;48.194;11.546;2023-08-17T05:08:28;4.50;;;3.05;;
29238;SDS011;16267;48.194;11.546;2023-08-17T05:10:54;4.95;;;2.25;;
29238;SDS011;16267;48.194;11.546;2023-08-17T05:13:20;8.95;;;3.20;;
29238;SDS011;16267;48.194;11.546;2023-08-17T05:15:46;3.53;;;2.83;;
29238;SDS011;16267;48.194;11.546;2023-08-17T05:18:11;5.80;;;2.80;;
29238;SDS011;16267;48.194;11.546;2023-08-17T05:20:37;4.93;;;3.08;;
29238;SDS011;16267;48.194;11.546;2023-08-17T05:23:03;4.30;;;2.80;;
29238;SDS011;16267;48.194;11.546;2023-08-17T05:25:29;3.63;;;3.00;;
29238;SDS011;16267;48.194;11.546;2023-08-17T05:27:54;6.95;;;2.58;;
29238;SDS011;16267;48.194;11.546;2023-08-17T05:30:21;4.10;;;3.22;;
29238;SDS011;16267;48.194;11.546;2023-08-17T05:32:47;6.32;;;3.97;;
29238;SDS011;16267;48.194;11.546;2023-08-17T05:35:12;3.97;;;3.03;;
29238;SDS011;16267;48.194;11.546;2023-08-17T05:37:38;5.28;;;3.38;;
29238;SDS011;16267;48.194;11.546;2023-08-17T05:40:04;4.60;;;3.25;;
29238;SDS011;16267;48.194;11.546;2023-08-17T05:42:31;3.90;;;2.83;;
29238;SDS011;16267;48.194;11.546;2023-08-17T05:44:56;3.78;;;2.85;;
29238;SDS011;16267;48.194;11.546;2023-08-17T05:47:22;5.18;;;3.00;;
29238;SDS011;16267;48.194;11.546;2023-08-17T05:49:48;4.97;;;3.35;;
29238;SDS011;16267;48.194;11.546;2023-08-17T05:52:13;4.18;;;2.78;;
29238;SDS011;16267;48.194;11.546;2023-08-17T05:54:39;3.85;;;2.95;;
29238;SDS011;16267;48.194;11.546;2023-08-17T05:57:05;4.65;;;3.20;;
29238;SDS011;16267;48.194;11.546;2023-08-17T05:59:31;4.47;;;3.20;;
29238;SDS011;16267;48.194;11.546;2023-08-17T06:01:56;3.83;;;2.67;;
29238;SDS011;16267;48.194;11.546;2023-08-17T06:04:22;5.20;;;3.35;;
29238;SDS011;16267;48.194;11.546;2023-08-17T06:06:48;3.10;;;2.55;;
29238;SDS011;16267;48.194;11.546;2023-08-17T06:09:14;4.60;;;3.30;;
29238;SDS011;16267;48.194;11.546;2023-08-17T06:11:40;5.72;;;3.58;;
29238;SDS011;16267;48.194;11.546;2023-08-17T06:14:06;4.15;;;3.10;;
29238;SDS011;16267;48.194;11.546;2023-08-17T06:16:32;5.00;;;3.22;;
29238;SDS011;16267;48.194;11.546;2023-08-17T06:18:57;6.35;;;2.90;;
29238;SDS011;16267;48.194;11.546;2023-08-17T06:21:23;5.07;;;2.90;;
29238;SDS011;16267;48.194;11.546;2023-08-17T06:23:49;3.88;;;2.55;;
29238;SDS011;16267;48.194;11.546;2023-08-17T06:26:15;3.35;;;2.45;;
29238;SDS011;16267;48.194;11.546;2023-08-17T06:28:40;4.72;;;3.00;;
29238;SDS011;16267;48.194;11.546;2023-08-17T06:31:06;4.25;;;2.78;;
29238;SDS011;16267;48.194;11.546;2023-08-17T06:33:32;4.93;;;2.90;;
29238;SDS011;16267;48.194;11.546;2023-08-17T06:35:58;3.63;;;2.95;;
29238;SDS011;16267;48.194;11.546;2023-08-17T06:38:24;3.60;;;2.40;;
29238;SDS011;16267;48.194;11.546;2023-08-17T06:40:51;3.33;;;2.65;;
29238;SDS011;16267;48.194;11.546;2023-08-17T06:43:17;3.10;;;2.30;;
29238;SDS011;16267;48.194;11.546;2023-08-17T06:45:43;4.38;;;1.85;;
29238;SDS011;16267;48.194;11.546;2023-08-17T06:48:09;2.85;;;2.38;;
29238;SDS011;16267;48.194;11.546;2023-08-17T06:50:35;3.38;;;2.45;;
29238;SDS011;16267;48.194;11.546;2023-08-17T06:53:01;3.15;;;2.05;;
29238;SDS011;16267;48.194;11.546;2023-08-17T06:55:27;3.03;;;2.05;;
29238;SDS011;16267;48.194;11.546;2023-08-17T06:57:53;3.72;;;2.55;;
29238;SDS011;16267;48.194;11.546;2023-08-17T07:00:20;2.72;;;2.22;;
29238;SDS011;16267;48.194;11.546;2023-08-17T07:02:50;3.35;;;2.22;;
29238;SDS011;16267;48.194;11.546;2023-08-17T07:05:15;3.20;;;2.20;;
29238;SDS011;16267;48.194;11.546;2023-08-17T07:07:42;3.38;;;2.03;;
29238;SDS011;16267;48.194;11.546;2023-08-17T07:10:08;3.45;;;2.42;;
29238;SDS011;16267;48.194;11.546;2023-08-17T07:12:36;2.97;;;2.28;;
29238;SDS011;16267;48.194;11.546;2023-08-17T07:15:03;3.42;;;2.35;;
29238;SDS011;16267;48.194;11.546;2023-08-17T07:17:30;3.03;;;2.15;;
29238;SDS011;16267;48.194;11.546;2023-08-17T07:19:56;4.85;;;2.80;;
29238;SDS011;16267;48.194;11.546;2023-08-17T07:22:22;7.03;;;2.13;;
29238;SDS011;16267;48.194;11.546;2023-08-17T07:24:48;3.05;;;2.50;;
29238;SDS011;16267;48.194;11.546;2023-08-17T07:27:13;4.20;;;2.85;;
29238;SDS011;16267;48.194;11.546;2023-08-17T07:29:39;4.38;;;2.65;;
29238;SDS011;16267;48.194;11.546;2023-08-17T07:32:05;4.82;;;2.63;;
29238;SDS011;16267;48.194;11.546;2023-08-17T07:34:30;2.63;;;2.25;;
29238;SDS011;16267;48.194;11.546;2023-08-17T07:36:57;3.13;;;2.20;;
29238;SDS011;16267;48.194;11.546;2023-08-17T07:39:23;3.92;;;2.78;;
29238;SDS011;16267;48.194;11.546;2023-08-17T07:41:48;2.47;;;2.05;;
29238;SDS011;16267;48.194;11.546;2023-08-17T07:44:14;3.53;;;2.70;;
29238;SDS011;16267;48.194;11.546;2023-08-17T07:46:40;3.78;;;2.15;;
29238;SDS011;16267;48.194;11.546;2023-08-17T07:49:06;3.42;;;2.67;;
29238;SDS011;16267;48.194;11.546;2023-08-17T07:51:32;3.22;;;2.40;;
29238;SDS011;16267;48.194;11.546;2023-08-17T07:53:59;3.33;;;2.47;;
29238;SDS011;16267;48.194;11.546;2023-08-17T07:56:26;3.95;;;2.38;;
29238;SDS011;16267;48.194;11.546;2023-08-17T07:58:53;3.42;;;2.33;;
29238;SDS011;16267;48.194;11.546;2023-08-17T08:01:19;4.32;;;3.00;;
29238;SDS011;16267;48.194;11.546;2023-08-17T08:03:45;3.03;;;2.47;;
29238;SDS011;16267;48.194;11.546;2023-08-17T08:06:11;3.05;;;2.42;;
29238;SDS011;16267;48.194;11.546;2023-08-17T08:08:37;3.03;;;2.42;;
29238;SDS011;16267;48.194;11.546;2023-08-17T08:11:05;3.45;;;2.35;;
29238;SDS011;16267;48.194;11.546;2023-08-17T08:13:31;4.18;;;2.15;;
29238;SDS011;16267;48.194;11.546;2023-08-17T08:15:58;2.83;;;2.17;;
29238;SDS011;16267;48.194;11.546;2023-08-17T08:18:24;3.13;;;2.38;;
29238;SDS011;16267;48.194;11.546;2023-08-17T08:20:50;3.97;;;2.90;;
29238;SDS011;16267;48.194;11.546;2023-08-17T08:23:16;2.58;;;1.83;;
29238;SDS011;16267;48.194;11.546;2023-08-17T08:25:41;4.68;;;3.15;;
29238;SDS011;16267;48.194;11.546;2023-08-17T08:28:07;3.25;;;2.45;;
29238;SDS011;16267;48.194;11.546;2023-08-17T08:30:34;3.58;;;2.70;;
29238;SDS011;16267;48.194;11.546;2023-08-17T08:33:00;3.42;;;2.40;;
29238;SDS011;16267;48.194;11.546;2023-08-17T08:35:26;5.55;;;2.63;;
29238;SDS011;16267;48.194;11.546;2023-08-17T08:37:54;4.13;;;2.83;;
29238;SDS011;16267;48.194;11.546;2023-08-17T08:40:20;4.10;;;2.40;;
29238;SDS011;16267;48.194;11.546;2023-08-17T08:42:56;3.80;;;2.70;;
29238;SDS011;16267;48.194;11.546;2023-08-17T08:45:22;3.50;;;2.35;;
29238;SDS011;16267;48.194;11.546;2023-08-17T08:47:50;4.00;;;2.67;;
29238;SDS011;16267;48.194;11.546;2023-08-17T08:50:18;3.03;;;2.10;;
29238;SDS011;16267;48.194;11.546;2023-08-17T08:52:55;3.80;;;2.70;;
29238;SDS011;16267;48.194;11.546;2023-08-17T08:55:36;3.38;;;2.58;;
29238;SDS011;16267;48.194;11.546;2023-08-17T08:58:04;3.22;;;2.63;;
29238;SDS011;16267;48.194;11.546;2023-08-17T09:00:31;3.05;;;2.25;;
29238;SDS011;16267;48.194;11.546;2023-08-17T09:02:59;4.07;;;2.58;;
29238;SDS011;16267;48.194;11.546;2023-08-17T09:05:26;3.60;;;2.30;;
29238;SDS011;16267;48.194;11.546;2023-08-17T09:07:52;3.25;;;2.38;;
29238;SDS011;16267;48.194;11.546;2023-08-17T09:10:19;3.42;;;2.40;;
29238;SDS011;16267;48.194;11.546;2023-08-17T09:12:45;4.57;;;2.67;;
29238;SDS011;16267;48.194;11.546;2023-08-17T09:15:12;3.00;;;2.63;;
29238;SDS011;16267;48.194;11.546;2023-08-17T09:17:38;3.05;;;2.20;;
29238;SDS011;16267;48.194;11.546;2023-08-17T09:20:04;5.35;;;2.40;;
29238;SDS011;16267;48.194;11.546;2023-08-17T09:25:11;3.50;;;2.30;;
29238;SDS011;16267;48.194;11.546;2023-08-17T09:27:48;4.07;;;2.47;;
29238;SDS011;16267;48.194;11.546;2023-08-17T09:30:14;3.20;;;2.22;;
29238;SDS011;16267;48.194;11.546;2023-08-17T09:32:40;4.05;;;2.50;;
29238;SDS011;16267;48.194;11.546;2023-08-17T09:35:06;2.80;;;2.05;;
29238;SDS011;16267;48.194;11.546;2023-08-17T09:37:33;2.92;;;2.25;;
29238;SDS011;16267;48.194;11.546;2023-08-17T09:39:59;3.67;;;2.35;;
29238;SDS011;16267;48.194;11.546;2023-08-17T09:42:26;2.95;;;2.03;;
29238;SDS011;16267;48.194;11.546;2023-08-17T09:44:52;3.65;;;2.70;;
29238;SDS011;16267;48.194;11.546;2023-08-17T09:47:20;4.07;;;2.13;;
29238;SDS011;16267;48.194;11.546;2023-08-17T09:49:48;2.72;;;2.22;;
29238;SDS011;16267;48.194;11.546;2023-08-17T09:52:18;3.63;;;2.50;;
29238;SDS011;16267;48.194;11.546;2023-08-17T09:54:46;5.75;;;2.97;;
29238;SDS011;16267;48.194;11.546;2023-08-17T09:57:16;3.40;;;2.05;;
29238;SDS011;16267;48.194;11.546;2023-08-17T09:59:41;4.03;;;2.38;;
29238;SDS011;16267;48.194;11.546;2023-08-17T10:02:10;2.50;;;2.13;;
29238;SDS011;16267;48.194;11.546;2023-08-17T10:04:44;2.92;;;2.20;;
29238;SDS011;16267;48.194;11.546;2023-08-17T10:07:16;3.03;;;2.28;;
29238;SDS011;16267;48.194;11.546;2023-08-17T10:09:47;3.10;;;2.42;;
29238;SDS011;16267;48.194;11.546;2023-08-17T10:12:22;3.33;;;2.67;;
29238;SDS011;16267;48.194;11.546;2023-08-17T10:14:55;3.10;;;2.30;;
29238;SDS011;16267;48.194;11.546;2023-08-17T10:17:35;2.30;;;2.10;;
29238;SDS011;16267;48.194;11.546;2023-08-17T10:20:09;2.53;;;1.85;;
29238;SDS011;16267;48.194;11.546;2023-08-17T10:22:56;2.75;;;2.00;;
29238;SDS011;16267;48.194;11.546;2023-08-17T10:25:44;3.00;;;2.45;;
29238;SDS011;16267;48.194;11.546;2023-08-17T10:28:12;3.17;;;2.15;;
29238;SDS011;16267;48.194;11.546;2023-08-17T10:30:39;2.40;;;2.15;;
29238;SDS011;16267;48.194;11.546;2023-08-17T10:33:06;4.82;;;2.00;;
29238;SDS011;16267;48.194;11.546;2023-08-17T10:35:34;2.53;;;2.10;;
29238;SDS011;16267;48.194;11.546;2023-08-17T10:38:02;4.75;;;2.33;;
29238;SDS011;16267;48.194;11.546;2023-08-17T10:40:34;2.88;;;2.15;;
29238;SDS011;16267;48.194;11.546;2023-08-17T10:50:30;2.50;;;2.10;;
29238;SDS011;16267;48.194;11.546;2023-08-17T10:52:57;3.15;;;2.13;;
29238;SDS011;16267;48.194;11.546;2023-08-17T10:55:35;3.42;;;2.25;;
29238;SDS011;16267;48.194;11.546;2023-08-17T10:58:06;3.80;;;2.20;;
29238;SDS011;16267;48.194;11.546;2023-08-17T11:00:40;3.03;;;2.40;;
29238;SDS011;16267;48.194;11.546;2023-08-17T11:03:10;2.72;;;2.28;;
29238;SDS011;16267;48.194;11.546;2023-08-17T11:15:55;2.33;;;2.10;;
29238;SDS011;16267;48.194;11.546;2023-08-17T11:18:24;2.67;;;2.20;;
29238;SDS011;16267;48.194;11.546;2023-08-17T11:20:50;3.40;;;2.00;;
29238;SDS011;16267;48.194;11.546;2023-08-17T11:23:16;3.65;;;2.58;;
29238;SDS011;16267;48.194;11.546;2023-08-17T11:25:43;3.45;;;2.47;;
29238;SDS011;16267;48.194;11.546;2023-08-17T11:28:09;3.88;;;2.60;;
29238;SDS011;16267;48.194;11.546;2023-08-17T11:30:35;2.30;;;1.90;;
29238;SDS011;16267;48.194;11.546;2023-08-17T11:33:04;2.63;;;1.98;;
29238;SDS011;16267;48.194;11.546;2023-08-17T11:35:31;3.03;;;2.45;;
29238;SDS011;16267;48.194;11.546;2023-08-17T11:37:57;3.10;;;2.22;;
29238;SDS011;16267;48.194;11.546;2023-08-17T11:40:23;2.60;;;2.10;;
29238;SDS011;16267;48.194;11.546;2023-08-17T11:42:51;4.72;;;2.00;;
29238;SDS011;16267;48.194;11.546;2023-08-17T11:45:17;2.90;;;2.10;;
29238;SDS011;16267;48.194;11.546;2023-08-17T11:47:43;2.30;;;1.98;;
29238;SDS011;16267;48.194;11.546;2023-08-17T11:50:14;3.05;;;2.33;;
29238;SDS011;16267;48.194;11.546;2023-08-17T11:52:40;3.55;;;2.30;;
29238;SDS011;16267;48.194;11.546;2023-08-17T11:55:06;2.72;;;2.17;;
29238;SDS011;16267;48.194;11.546;2023-08-17T11:57:35;1.67;;;1.58;;
29238;SDS011;16267;48.194;11.546;2023-08-17T12:00:02;2.33;;;1.88;;
29238;SDS011;16267;48.194;11.546;2023-08-17T12:02:35;2.85;;;2.17;;
29238;SDS011;16267;48.194;11.546;2023-08-17T12:05:07;2.15;;;1.95;;
29238;SDS011;16267;48.194;11.546;2023-08-17T12:07:34;3.38;;;2.00;;
29238;SDS011;16267;48.194;11.546;2023-08-17T12:10:02;3.70;;;2.13;;
29238;SDS011;16267;48.194;11.546;2023-08-17T12:12:29;2.22;;;1.90;;
29238;SDS011;16267;48.194;11.546;2023-08-17T12:14:56;2.88;;;2.13;;
29238;SDS011;16267;48.194;11.546;2023-08-17T12:17:23;4.03;;;2.17;;
29238;SDS011;16267;48.194;11.546;2023-08-17T12:19:49;2.65;;;2.10;;
29238;SDS011;16267;48.194;11.546;2023-08-17T12:22:19;2.42;;;2.00;;
29238;SDS011;16267;48.194;11.546;2023-08-17T12:24:51;2.83;;;1.70;;
29238;SDS011;16267;48.194;11.546;2023-08-17T12:27:17;2.00;;;1.80;;
29238;SDS011;16267;48.194;11.546;2023-08-17T12:29:47;2.35;;;1.90;;
29238;SDS011;16267;48.194;11.546;2023-08-17T12:32:17;2.70;;;2.15;;
29238;SDS011;16267;48.194;11.546;2023-08-17T12:34:45;2.65;;;1.45;;
29238;SDS011;16267;48.194;11.546;2023-08-17T12:37:11;3.30;;;2.20;;
29238;SDS011;16267;48.194;11.546;2023-08-17T12:39:43;3.43;;;2.60;;
29238;SDS011;16267;48.194;11.546;2023-08-17T12:42:09;1.98;;;1.77;;
29238;SDS011;16267;48.194;11.546;2023-08-17T12:44:34;2.53;;;2.15;;
29238;SDS011;16267;48.194;11.546;2023-08-17T12:47:00;2.85;;;2.05;;
29238;SDS011;16267;48.194;11.546;2023-08-17T12:49:26;2.72;;;2.05;;
29238;SDS011;16267;48.194;11.546;2023-08-17T12:51:51;2.55;;;1.83;;
29238;SDS011;16267;48.194;11.546;2023-08-17T12:54:17;1.85;;;1.58;;
29238;SDS011;16267;48.194;11.546;2023-08-17T12:56:43;2.40;;;1.98;;
29238;SDS011;16267;48.194;11.546;2023-08-17T12:59:10;2.17;;;1.50;;
29238;SDS011;16267;48.194;11.546;2023-08-17T13:01:36;1.73;;;1.50;;
29238;SDS011;16267;48.194;11.546;2023-08-17T13:04:01;1.77;;;1.50;;
29238;SDS011;16267;48.194;11.546;2023-08-17T13:06:27;2.50;;;2.00;;
29238;SDS011;16267;48.194;11.546;2023-08-17T13:08:53;3.20;;;2.35;;
29238;SDS011;16267;48.194;11.546;2023-08-17T13:11:19;2.72;;;1.85;;
29238;SDS011;16267;48.194;11.546;2023-08-17T13:13:45;2.97;;;2.00;;
29238;SDS011;16267;48.194;11.546;2023-08-17T13:16:11;3.80;;;2.58;;
29238;SDS011;16267;48.194;11.546;2023-08-17T13:18:37;2.10;;;1.88;;
29238;SDS011;16267;48.194;11.546;2023-08-17T13:21:03;2.42;;;1.85;;
29238;SDS011;16267;48.194;11.546;2023-08-17T13:23:28;2.47;;;1.92;;
29238;SDS011;16267;48.194;11.546;2023-08-17T13:25:54;1.90;;;1.70;;
29238;SDS011;16267;48.194;11.546;2023-08-17T13:28:20;2.42;;;1.75;;
29238;SDS011;16267;48.194;11.546;2023-08-17T13:30:46;1.73;;;1.33;;
29238;SDS011;16267;48.194;11.546;2023-08-17T13:33:12;2.03;;;1.60;;
29238;SDS011;16267;48.194;11.546;2023-08-17T13:35:37;2.17;;;1.60;;
29238;SDS011;16267;48.194;11.546;2023-08-17T13:38:04;2.03;;;1.58;;
29238;SDS011;16267;48.194;11.546;2023-08-17T13:40:33;1.70;;;1.38;;
29238;SDS011;16267;48.194;11.546;2023-08-17T13:43:01;1.92;;;1.42;;
29238;SDS011;16267;48.194;11.546;2023-08-17T13:45:28;2.42;;;1.75;;
29238;SDS011;16267;48.194;11.546;2023-08-17T13:47:54;2.03;;;1.63;;
29238;SDS011;16267;48.194;11.546;2023-08-17T13:50:19;1.25;;;1.10;;
29238;SDS011;16267;48.194;11.546;2023-08-17T13:52:45;1.73;;;1.33;;
29238;SDS011;16267;48.194;11.546;2023-08-17T13:55:12;1.63;;;1.38;;
29238;SDS011;16267;48.194;11.546;2023-08-17T13:57:37;2.00;;;1.33;;
29238;SDS011;16267;48.194;11.546;2023-08-17T14:00:03;1.98;;;1.70;;
29238;SDS011;16267;48.194;11.546;2023-08-17T14:02:30;1.23;;;1.13;;
29238;SDS011;16267;48.194;11.546;2023-08-17T14:04:56;2.50;;;1.60;;
29238;SDS011;16267;48.194;11.546;2023-08-17T14:07:22;2.20;;;1.50;;
29238;SDS011;16267;48.194;11.546;2023-08-17T14:09:48;2.35;;;1.77;;
29238;SDS011;16267;48.194;11.546;2023-08-17T14:12:13;2.60;;;1.95;;
29238;SDS011;16267;48.194;11.546;2023-08-17T14:14:39;2.97;;;2.30;;
29238;SDS011;16267;48.194;11.546;2023-08-17T14:17:05;3.22;;;2.45;;
29238;SDS011;16267;48.194;11.546;2023-08-17T14:19:30;5.68;;;2.47;;
29238;SDS011;16267;48.194;11.546;2023-08-17T14:21:56;3.17;;;2.75;;
29238;SDS011;16267;48.194;11.546;2023-08-17T14:24:24;3.25;;;2.50;;
29238;SDS011;16267;48.194;11.546;2023-08-17T14:26:50;4.07;;;2.85;;
29238;SDS011;16267;48.194;11.546;2023-08-17T14:29:15;2.92;;;2.53;;
29238;SDS011;16267;48.194;11.546;2023-08-17T14:31:41;3.40;;;3.05;;
29238;SDS011;16267;48.194;11.546;2023-08-17T14:34:07;3.15;;;2.55;;
29238;SDS011;16267;48.194;11.546;2023-08-17T14:36:33;2.90;;;2.60;;
29238;SDS011;16267;48.194;11.546;2023-08-17T14:38:58;3.38;;;2.88;;
29238;SDS011;16267;48.194;11.546;2023-08-17T14:41:24;4.05;;;2.10;;
29238;SDS011;16267;48.194;11.546;2023-08-17T14:43:56;3.63;;;2.70;;
29238;SDS011;16267;48.194;11.546;2023-08-17T14:46:23;2.90;;;2.40;;
29238;SDS011;16267;48.194;11.546;2023-08-17T14:48:50;3.25;;;2.70;;
29238;SDS011;16267;48.194;11.546;2023-08-17T14:51:16;2.90;;;2.40;;
29238;SDS011;16267;48.194;11.546;2023-08-17T14:53:42;3.63;;;2.78;;
29238;SDS011;16267;48.194;11.546;2023-08-17T14:56:08;2.90;;;2.38;;
29238;SDS011;16267;48.194;11.546;2023-08-17T14:58:34;3.35;;;2.70;;